createdAt,value
2023-04-26T00:01:18.096Z,5.30
2023-04-26T00:03:44.633Z,3.22
2023-04-26T00:06:13.987Z,5.07
2023-04-26T00:08:42.182Z,4.38
2023-04-26T00:11:08.554Z,4.47
2023-04-26T00:13:35.028Z,2.80
2023-04-26T00:16:01.544Z,3.53
2023-04-26T00:18:28.234Z,6.65
2023-04-26T00:20:54.677Z,8.75
2023-04-26T00:23:21.084Z,4.85
2023-04-26T00:25:47.511Z,6.75
2023-04-26T00:28:13.906Z,7.22
2023-04-26T00:30:42.098Z,6.78
2023-04-26T00:33:09.330Z,4.70
2023-04-26T00:35:35.716Z,3.15
2023-04-26T00:38:02.080Z,9.02
2023-04-26T00:40:28.528Z,3.40
2023-04-26T00:42:58.346Z,4.93
2023-04-26T00:45:24.716Z,3.45
2023-04-26T00:47:51.280Z,4.82
2023-04-26T00:50:17.944Z,3.47
2023-04-26T00:52:47.116Z,4.97
2023-04-26T00:55:18.622Z,4.32
2023-04-26T00:57:45.765Z,4.40
2023-04-26T01:00:12.744Z,4.85
2023-04-26T01:02:39.366Z,3.47
2023-04-26T01:05:06.931Z,6.53
2023-04-26T01:07:33.478Z,5.28
2023-04-26T01:10:04.859Z,3.60
2023-04-26T01:12:32.151Z,5.60
2023-04-26T01:14:59.902Z,4.50
2023-04-26T01:17:26.441Z,3.70
2023-04-26T01:19:52.840Z,3.15
2023-04-26T01:22:19.240Z,6.40
2023-04-26T01:24:50.063Z,3.58
2023-04-26T01:27:16.801Z,5.03
2023-04-26T01:29:43.420Z,3.15
2023-04-26T01:32:09.800Z,1.50
2023-04-26T01:34:37.210Z,5.25
2023-04-26T01:37:03.681Z,2.85
2023-04-26T01:39:30.254Z,4.53
2023-04-26T01:41:58.471Z,4.03
2023-04-26T01:44:24.834Z,3.30
2023-04-26T01:46:51.821Z,3.55
2023-04-26T01:49:18.238Z,2.60
2023-04-26T01:51:46.785Z,4.20
2023-04-26T01:54:13.254Z,4.35
2023-04-26T01:56:40.001Z,3.33
2023-04-26T01:59:06.548Z,4.57
2023-04-26T02:01:32.970Z,3.17
2023-04-26T02:03:59.409Z,2.72
2023-04-26T02:06:26.497Z,2.38
2023-04-26T02:08:54.241Z,2.28
2023-04-26T02:11:21.148Z,1.08
2023-04-26T02:13:47.643Z,1.73
2023-04-26T02:16:16.407Z,2.22
2023-04-26T02:18:42.828Z,5.88
2023-04-26T02:21:11.651Z,1.73
2023-04-26T02:23:38.028Z,1.83
2023-04-26T02:26:04.715Z,1.85
2023-04-26T02:28:31.483Z,4.20
2023-04-26T02:30:58.412Z,2.55
2023-04-26T02:33:24.804Z,1.85
2023-04-26T02:35:51.405Z,1.90
2023-04-26T02:38:18.798Z,2.22
2023-04-26T02:40:45.424Z,3.47
2023-04-26T02:43:12.760Z,1.48
2023-04-26T02:45:43.273Z,2.63
2023-04-26T02:48:11.693Z,2.50
2023-04-26T02:50:38.649Z,2.10
2023-04-26T02:53:05.551Z,1.55
2023-04-26T02:55:32.227Z,2.65
2023-04-26T02:57:58.726Z,3.60
2023-04-26T03:00:25.429Z,2.65
2023-04-26T03:02:52.073Z,2.63
2023-04-26T03:05:19.922Z,2.05
2023-04-26T03:07:46.437Z,1.40
2023-04-26T03:10:17.082Z,1.85
2023-04-26T03:12:43.866Z,2.95
2023-04-26T03:15:10.631Z,2.47
2023-04-26T03:17:39.151Z,2.60
2023-04-26T03:20:07.085Z,2.72
2023-04-26T03:22:34.026Z,3.38
2023-04-26T03:25:01.174Z,2.70
2023-04-26T03:27:28.536Z,1.85
2023-04-26T03:29:55.452Z,0.93
2023-04-26T03:32:21.954Z,1.80
2023-04-26T03:34:49.767Z,2.63
2023-04-26T03:37:16.250Z,2.50
2023-04-26T03:39:45.066Z,2.72
2023-04-26T03:42:11.443Z,2.10
2023-04-26T03:44:38.373Z,1.63
2023-04-26T03:47:05.456Z,2.13
2023-04-26T03:49:32.309Z,2.97
2023-04-26T03:52:02.387Z,1.55
2023-04-26T03:54:29.432Z,2.03
2023-04-26T03:56:55.850Z,3.00
2023-04-26T03:59:22.349Z,2.28
2023-04-26T04:01:48.829Z,1.67
2023-04-26T04:04:15.685Z,1.45
2023-04-26T04:06:43.202Z,2.03
2023-04-26T04:09:09.589Z,3.17
2023-04-26T04:11:35.995Z,1.00
2023-04-26T04:14:02.898Z,1.65
2023-04-26T04:16:29.380Z,1.85
2023-04-26T04:18:56.003Z,0.77
2023-04-26T04:21:22.409Z,2.25
2023-04-26T04:23:50.057Z,1.98
2023-04-26T04:26:17.423Z,2.35
2023-04-26T04:28:45.443Z,2.55
2023-04-26T04:31:12.917Z,1.92
2023-04-26T04:33:39.437Z,5.07
2023-04-26T04:36:07.185Z,1.20
2023-04-26T04:38:33.645Z,2.80
2023-04-26T04:41:00.073Z,0.93
2023-04-26T04:43:27.910Z,0.98
2023-04-26T04:45:54.333Z,2.55
2023-04-26T04:48:21.295Z,1.40
2023-04-26T04:50:49.408Z,1.35
2023-04-26T04:53:16.045Z,2.22
2023-04-26T04:55:42.453Z,1.45
2023-04-26T04:58:10.812Z,2.97
2023-04-26T05:00:37.964Z,1.70
2023-04-26T05:03:34.012Z,3.08
2023-04-26T05:06:02.565Z,1.85
2023-04-26T05:08:28.986Z,2.15
2023-04-26T05:10:59.141Z,0.98
2023-04-26T05:13:25.664Z,1.17
2023-04-26T05:15:52.146Z,3.97
2023-04-26T05:18:18.593Z,1.65
2023-04-26T05:20:44.964Z,2.22
2023-04-26T05:23:11.421Z,2.47
2023-04-26T05:25:38.025Z,1.30
2023-04-26T05:28:21.942Z,1.58
2023-04-26T05:31:02.561Z,0.95
2023-04-26T05:33:46.528Z,1.15
2023-04-26T05:36:19.414Z,1.80
2023-04-26T05:38:45.777Z,1.23
2023-04-26T05:41:12.158Z,1.23
2023-04-26T05:43:38.658Z,1.50
2023-04-26T05:46:05.550Z,1.45
2023-04-26T05:48:32.029Z,1.27
2023-04-26T05:50:58.380Z,1.50
2023-04-26T05:53:24.747Z,1.00
2023-04-26T05:55:51.638Z,1.23
2023-04-26T05:58:18.085Z,0.60
2023-04-26T06:00:45.418Z,0.93
2023-04-26T06:03:12.761Z,0.93
2023-04-26T06:05:39.501Z,0.98
2023-04-26T06:08:06.108Z,1.45
2023-04-26T06:10:32.719Z,1.52
2023-04-26T06:12:59.375Z,0.98
2023-04-26T06:15:27.812Z,0.90
2023-04-26T06:17:55.015Z,1.35
2023-04-26T06:20:21.848Z,1.20
2023-04-26T06:22:48.276Z,1.45
2023-04-26T06:25:15.282Z,1.25
2023-04-26T06:27:41.861Z,2.22
2023-04-26T06:30:10.018Z,8.25
2023-04-26T06:32:43.119Z,0.90
2023-04-26T06:35:09.938Z,0.90
2023-04-26T06:37:37.586Z,0.73
2023-04-26T06:40:04.857Z,0.68
2023-04-26T06:42:31.414Z,1.77
2023-04-26T06:45:22.481Z,1.55
2023-04-26T06:47:51.542Z,0.85
2023-04-26T06:50:18.231Z,0.82
2023-04-26T06:52:44.622Z,3.80
2023-04-26T06:55:11.059Z,1.88
2023-04-26T06:57:37.447Z,2.20
2023-04-26T07:00:04.591Z,0.95
2023-04-26T07:02:31.523Z,1.52
2023-04-26T07:04:58.289Z,1.75
2023-04-26T07:07:24.806Z,3.00
2023-04-26T07:09:52.792Z,2.42
2023-04-26T07:12:19.213Z,1.58
2023-04-26T07:14:45.817Z,0.68
2023-04-26T07:17:12.273Z,2.28
2023-04-26T07:19:38.712Z,1.90
2023-04-26T07:22:08.948Z,4.88
2023-04-26T07:24:35.390Z,4.38
2023-04-26T07:27:01.981Z,6.28
2023-04-26T07:29:28.554Z,7.40
2023-04-26T07:31:55.711Z,4.45
2023-04-26T07:34:22.060Z,5.40
2023-04-26T07:36:48.438Z,5.90
2023-04-26T07:39:15.392Z,8.40
2023-04-26T07:41:43.844Z,7.82
2023-04-26T07:44:11.113Z,3.42
2023-04-26T07:46:37.489Z,4.10
2023-04-26T07:49:04.179Z,7.32
2023-04-26T07:51:30.639Z,11.00
2023-04-26T07:53:57.065Z,11.63
2023-04-26T07:56:24.264Z,14.07
2023-04-26T07:58:50.834Z,9.27
2023-04-26T08:01:17.214Z,9.95
2023-04-26T08:03:43.689Z,9.80
2023-04-26T08:06:10.584Z,11.40
2023-04-26T08:08:42.818Z,11.52
2023-04-26T08:11:10.069Z,7.47
2023-04-26T08:13:36.690Z,10.23
2023-04-26T08:16:03.135Z,8.50
2023-04-26T08:18:29.549Z,12.10
2023-04-26T08:20:55.886Z,3.92
2023-04-26T08:23:22.826Z,9.55
2023-04-26T08:25:49.789Z,8.82
2023-04-26T08:28:16.349Z,10.15
2023-04-26T08:30:43.570Z,9.30
2023-04-26T08:33:10.384Z,7.20
2023-04-26T08:35:36.914Z,7.20
2023-04-26T08:38:03.344Z,9.35
2023-04-26T08:40:29.934Z,12.52
2023-04-26T08:42:56.345Z,4.75
2023-04-26T08:45:23.368Z,7.95
2023-04-26T08:47:51.672Z,7.38
2023-04-26T08:50:23.151Z,5.53
2023-04-26T08:52:52.181Z,4.10
2023-04-26T08:55:20.199Z,5.93
2023-04-26T08:57:48.187Z,7.63
2023-04-26T09:00:15.926Z,7.90
2023-04-26T09:02:46.507Z,5.97
2023-04-26T09:05:13.702Z,10.57
2023-04-26T09:07:47.791Z,5.13
2023-04-26T09:10:21.759Z,5.15
2023-04-26T09:12:53.239Z,10.82
2023-04-26T09:15:22.674Z,6.15
2023-04-26T09:17:49.917Z,6.97
2023-04-26T09:20:21.653Z,6.07
2023-04-26T09:22:49.857Z,6.20
2023-04-26T09:25:18.483Z,5.60
2023-04-26T09:27:45.818Z,6.60
2023-04-26T09:30:17.273Z,4.53
2023-04-26T09:32:56.538Z,9.93
2023-04-26T09:35:36.862Z,7.97
2023-04-26T09:38:14.111Z,8.02
2023-04-26T09:40:48.920Z,8.23
2023-04-26T09:43:19.915Z,3.47
2023-04-26T09:45:57.767Z,6.95
2023-04-26T09:48:30.612Z,4.75
2023-04-26T09:50:59.009Z,9.90
2023-04-26T09:53:29.013Z,9.98
2023-04-26T09:55:57.286Z,8.98
2023-04-26T09:58:23.890Z,13.82
2023-04-26T10:00:51.982Z,9.90
2023-04-26T10:03:23.125Z,17.83
2023-04-26T10:05:49.806Z,16.05
2023-04-26T10:08:16.496Z,19.25
2023-04-26T10:10:43.850Z,12.65
2023-04-26T10:13:11.557Z,11.82
2023-04-26T10:15:39.639Z,17.38
2023-04-26T10:18:06.214Z,12.90
2023-04-26T10:20:32.586Z,18.20
2023-04-26T10:23:01.492Z,15.38
2023-04-26T10:25:39.174Z,12.40
2023-04-26T10:28:10.735Z,11.93
2023-04-26T10:30:55.670Z,14.52
2023-04-26T10:33:23.805Z,15.15
2023-04-26T10:36:04.060Z,30.15
2023-04-26T10:38:31.349Z,37.05
2023-04-26T10:41:38.446Z,48.40
2023-04-26T10:44:40.632Z,35.05
2023-04-26T10:47:20.675Z,54.35
2023-04-26T10:49:48.135Z,46.53
2023-04-26T10:52:16.770Z,38.67
2023-04-26T10:54:57.166Z,38.70
2023-04-26T10:57:43.169Z,35.58
2023-04-26T11:00:17.119Z,30.88
2023-04-26T11:02:52.366Z,38.28
2023-04-26T11:05:53.990Z,24.52
2023-04-26T11:08:24.824Z,22.73
2023-04-26T11:10:57.458Z,22.80
2023-04-26T11:13:26.996Z,17.05
2023-04-26T11:15:55.054Z,23.00
2023-04-26T11:18:22.182Z,22.77
2023-04-26T11:20:48.867Z,28.55
2023-04-26T11:23:17.758Z,23.27
2023-04-26T11:25:44.223Z,25.60
2023-04-26T11:28:12.009Z,20.52
2023-04-26T11:30:38.382Z,26.17
2023-04-26T11:33:05.221Z,23.15
2023-04-26T11:35:35.916Z,17.35
2023-04-26T11:38:05.405Z,15.48
2023-04-26T11:40:33.429Z,13.65
2023-04-26T11:43:06.645Z,20.05
2023-04-26T11:45:34.904Z,27.10
2023-04-26T11:48:03.271Z,16.27
2023-04-26T11:50:32.100Z,18.00
2023-04-26T11:53:00.974Z,14.85
2023-04-26T11:55:28.501Z,18.50
2023-04-26T11:57:55.347Z,15.98
2023-04-26T12:00:22.256Z,17.52
2023-04-26T12:02:49.456Z,13.63
2023-04-26T12:05:25.573Z,12.30
2023-04-26T12:07:57.202Z,17.85
2023-04-26T12:10:29.147Z,19.40
2023-04-26T12:12:58.511Z,16.42
2023-04-26T12:15:38.770Z,11.32
2023-04-26T12:18:10.654Z,22.92
2023-04-26T12:20:43.519Z,15.43
2023-04-26T12:23:15.425Z,10.25
2023-04-26T12:25:52.469Z,18.80
2023-04-26T12:28:19.042Z,10.98
2023-04-26T12:30:45.415Z,10.23
2023-04-26T12:33:17.762Z,10.60
2023-04-26T12:35:44.659Z,12.07
2023-04-26T12:38:12.310Z,11.88
2023-04-26T12:40:39.085Z,15.55
2023-04-26T12:43:05.457Z,7.13
2023-04-26T12:45:31.911Z,9.77
2023-04-26T12:47:58.360Z,14.90
2023-04-26T12:50:24.867Z,12.45
2023-04-26T12:52:51.493Z,14.88
2023-04-26T12:55:18.580Z,12.13
2023-04-26T12:57:45.880Z,24.50
2023-04-26T13:00:14.413Z,14.95
2023-04-26T13:02:41.614Z,19.83
2023-04-26T13:05:09.261Z,18.65
2023-04-26T13:07:37.775Z,14.38
2023-04-26T13:10:05.074Z,20.30
2023-04-26T13:12:31.828Z,18.23
2023-04-26T13:14:58.198Z,20.80
2023-04-26T13:17:25.794Z,25.08
2023-04-26T13:19:52.937Z,40.83
2023-04-26T13:22:20.876Z,29.23
2023-04-26T13:24:47.528Z,36.35
2023-04-26T13:27:14.066Z,38.67
2023-04-26T13:29:41.030Z,37.33
2023-04-26T13:32:08.244Z,29.83
2023-04-26T13:34:35.666Z,35.83
2023-04-26T13:37:03.831Z,30.15
2023-04-26T13:39:31.128Z,44.67
2023-04-26T13:41:59.486Z,31.40
2023-04-26T13:44:26.894Z,47.00
2023-04-26T13:46:55.361Z,45.00
2023-04-26T13:49:22.858Z,43.10
2023-04-26T13:51:49.289Z,46.97
2023-04-26T13:54:15.676Z,37.63
2023-04-26T13:56:42.048Z,38.10
2023-04-26T13:59:08.425Z,30.45
2023-04-26T14:01:36.071Z,40.60
2023-04-26T14:04:04.383Z,52.00
2023-04-26T14:06:32.541Z,40.97
2023-04-26T14:08:59.349Z,39.90
2023-04-26T14:11:25.961Z,38.22
2023-04-26T14:13:55.981Z,33.53
2023-04-26T14:16:23.584Z,51.88
2023-04-26T14:18:50.211Z,44.40
2023-04-26T14:21:16.706Z,32.08
2023-04-26T14:23:43.098Z,41.03
2023-04-26T14:26:10.608Z,35.63
2023-04-26T14:28:37.035Z,34.92
2023-04-26T14:31:03.579Z,36.67
2023-04-26T14:33:29.973Z,34.17
2023-04-26T14:35:56.445Z,34.88
2023-04-26T14:38:22.856Z,39.45
2023-04-26T14:40:49.231Z,30.88
2023-04-26T14:43:15.806Z,25.63
2023-04-26T14:45:44.558Z,23.17
2023-04-26T14:48:12.320Z,26.75
2023-04-26T14:50:38.897Z,27.90
2023-04-26T14:53:05.318Z,26.05
2023-04-26T14:55:32.325Z,23.75
2023-04-26T14:57:58.937Z,22.50
2023-04-26T15:00:26.014Z,38.67
2023-04-26T15:02:52.584Z,28.95
2023-04-26T15:05:24.127Z,30.75
2023-04-26T15:07:51.720Z,31.35
2023-04-26T15:10:18.074Z,21.00
2023-04-26T15:12:44.617Z,19.25
2023-04-26T15:15:11.435Z,15.65
2023-04-26T15:17:37.877Z,33.08
2023-04-26T15:20:06.225Z,26.40
2023-04-26T15:22:34.840Z,24.55
2023-04-26T15:25:03.153Z,20.38
2023-04-26T15:27:29.545Z,14.57
2023-04-26T15:29:56.673Z,23.27
2023-04-26T15:32:23.044Z,23.67
2023-04-26T15:34:49.736Z,22.45
2023-04-26T15:37:16.126Z,17.55
2023-04-26T15:39:42.604Z,17.30
2023-04-26T15:42:09.006Z,23.02
2023-04-26T15:44:35.617Z,17.73
2023-04-26T15:47:02.424Z,19.73
2023-04-26T15:49:28.984Z,26.27
2023-04-26T15:51:55.432Z,24.02
2023-04-26T15:54:22.121Z,16.10
2023-04-26T15:56:48.662Z,29.15
2023-04-26T15:59:15.221Z,18.42
2023-04-26T16:01:41.668Z,17.05
2023-04-26T16:04:08.865Z,20.30
2023-04-26T16:06:35.616Z,21.23
2023-04-26T16:09:17.189Z,17.05
2023-04-26T16:11:50.308Z,22.10
2023-04-26T16:14:16.687Z,19.17
2023-04-26T16:16:44.329Z,16.17
2023-04-26T16:19:10.821Z,19.38
2023-04-26T16:21:39.566Z,27.15
2023-04-26T16:24:08.717Z,21.45
2023-04-26T16:26:35.351Z,18.65
2023-04-26T16:29:01.789Z,17.65
2023-04-26T16:31:28.218Z,16.60
2023-04-26T16:33:54.777Z,15.85
2023-04-26T16:36:21.309Z,22.70
2023-04-26T16:38:47.680Z,23.38
2023-04-26T16:41:14.026Z,9.18
2023-04-26T16:43:40.565Z,18.65
2023-04-26T16:46:08.017Z,17.60
2023-04-26T16:48:36.426Z,20.02
2023-04-26T16:51:07.113Z,21.23
2023-04-26T16:53:34.445Z,15.25
2023-04-26T16:56:00.922Z,20.33
2023-04-26T16:58:27.421Z,21.85
2023-04-26T17:01:00.154Z,25.88
2023-04-26T17:03:27.058Z,20.75
2023-04-26T17:05:53.636Z,17.60
2023-04-26T17:08:20.062Z,25.20
2023-04-26T17:10:46.968Z,20.55
2023-04-26T17:13:13.597Z,21.60
2023-04-26T17:15:41.291Z,23.45
2023-04-26T17:18:08.964Z,17.40
2023-04-26T17:20:35.949Z,15.20
2023-04-26T17:23:04.175Z,17.98
2023-04-26T17:25:31.187Z,18.30
2023-04-26T17:27:57.692Z,16.65
2023-04-26T17:30:24.206Z,18.63
2023-04-26T17:32:50.713Z,16.90
2023-04-26T17:35:17.208Z,14.48
2023-04-26T17:37:46.114Z,17.92
2023-04-26T17:40:12.892Z,16.73
2023-04-26T17:42:39.291Z,12.98
2023-04-26T17:45:06.685Z,15.43
2023-04-26T17:47:33.344Z,12.00
2023-04-26T17:49:59.840Z,9.45
2023-04-26T17:52:26.811Z,17.60
2023-04-26T17:54:54.382Z,15.43
2023-04-26T17:57:22.978Z,14.00
2023-04-26T17:59:53.242Z,9.02
2023-04-26T18:02:19.767Z,17.15
2023-04-26T18:04:49.095Z,10.18
2023-04-26T18:07:15.995Z,12.05
2023-04-26T18:09:42.406Z,13.00
2023-04-26T18:12:09.074Z,9.40
2023-04-26T18:14:35.575Z,8.15
2023-04-26T18:17:03.771Z,12.45
2023-04-26T18:19:30.729Z,9.65
2023-04-26T18:21:57.096Z,8.60
2023-04-26T18:24:23.539Z,9.15
2023-04-26T18:26:49.906Z,11.75
2023-04-26T18:29:16.355Z,11.48
2023-04-26T18:31:42.773Z,8.73
2023-04-26T18:34:11.294Z,14.68
2023-04-26T18:36:37.798Z,8.85
2023-04-26T18:39:04.589Z,8.82
2023-04-26T18:41:30.975Z,9.18
2023-04-26T18:43:57.353Z,6.10
2023-04-26T18:46:23.815Z,10.48
2023-04-26T18:48:50.220Z,10.52
2023-04-26T18:51:16.646Z,10.35
2023-04-26T18:53:43.042Z,6.38
2023-04-26T18:56:09.468Z,6.38
2023-04-26T18:58:36.614Z,12.32
2023-04-26T19:01:03.064Z,10.20
2023-04-26T19:03:29.529Z,7.03
2023-04-26T19:05:55.942Z,8.50
2023-04-26T19:08:22.291Z,14.23
2023-04-26T19:10:48.848Z,9.98
2023-04-26T19:13:15.406Z,10.13
2023-04-26T19:15:41.817Z,7.00
2023-04-26T19:18:08.395Z,7.93
2023-04-26T19:20:35.203Z,6.55
2023-04-26T19:23:01.653Z,9.00
2023-04-26T19:25:30.337Z,9.60
2023-04-26T19:27:56.907Z,15.38
2023-04-26T19:30:23.315Z,12.70
2023-04-26T19:32:49.759Z,17.40
2023-04-26T19:35:16.149Z,16.45
2023-04-26T19:37:42.502Z,10.63
2023-04-26T19:40:10.142Z,14.40
2023-04-26T19:42:36.520Z,21.52
2023-04-26T19:45:03.043Z,14.73
2023-04-26T19:47:29.470Z,11.15
2023-04-26T19:49:57.588Z,12.95
2023-04-26T19:52:23.997Z,13.23
2023-04-26T19:54:55.734Z,12.30
2023-04-26T19:57:22.553Z,13.73
2023-04-26T19:59:48.926Z,11.38
2023-04-26T20:02:15.389Z,14.82
2023-04-26T20:04:42.664Z,7.93
2023-04-26T20:07:09.167Z,12.40
2023-04-26T20:09:35.820Z,11.00
2023-04-26T20:12:02.197Z,12.82
2023-04-26T20:14:30.149Z,9.35
2023-04-26T20:16:56.612Z,10.10
2023-04-26T20:19:23.393Z,10.88
2023-04-26T20:21:49.821Z,6.70
2023-04-26T20:24:16.311Z,9.90
2023-04-26T20:26:42.725Z,8.43
2023-04-26T20:29:09.400Z,7.38
2023-04-26T20:31:36.155Z,12.30
2023-04-26T20:34:02.636Z,7.15
2023-04-26T20:36:29.034Z,6.38
2023-04-26T20:38:55.821Z,4.47
2023-04-26T20:41:22.207Z,9.00
2023-04-26T20:43:49.086Z,10.45
2023-04-26T20:46:16.181Z,6.57
2023-04-26T20:48:42.579Z,10.88
2023-04-26T20:51:08.960Z,5.93
2023-04-26T20:53:35.319Z,10.23
2023-04-26T20:56:01.679Z,10.30
2023-04-26T20:58:29.646Z,6.45
2023-04-26T21:00:56.027Z,9.52
2023-04-26T21:03:22.563Z,9.82
2023-04-26T21:05:49.255Z,5.78
2023-04-26T21:08:15.666Z,8.10
2023-04-26T21:10:42.016Z,11.35
2023-04-26T21:13:09.226Z,8.63
2023-04-26T21:15:35.705Z,11.13
2023-04-26T21:18:02.945Z,9.20
2023-04-26T21:20:29.385Z,8.07
2023-04-26T21:22:55.893Z,10.23
2023-04-26T21:25:22.681Z,6.53
2023-04-26T21:27:51.137Z,8.60
2023-04-26T21:30:17.756Z,13.77
2023-04-26T21:32:44.162Z,9.13
2023-04-26T21:35:13.372Z,7.70
2023-04-26T21:37:39.730Z,6.80
2023-04-26T21:40:07.953Z,9.40
2023-04-26T21:42:34.437Z,12.55
2023-04-26T21:45:00.856Z,8.65
2023-04-26T21:47:27.511Z,8.13
2023-04-26T21:49:53.878Z,8.00
2023-04-26T21:52:20.650Z,9.43
2023-04-26T21:54:47.051Z,7.25
2023-04-26T21:57:13.457Z,5.95
2023-04-26T21:59:42.105Z,7.32
2023-04-26T22:02:08.614Z,7.65
2023-04-26T22:04:35.045Z,5.15
2023-04-26T22:07:01.404Z,3.85
2023-04-26T22:09:27.765Z,6.10
2023-04-26T22:11:54.155Z,8.38
2023-04-26T22:14:20.945Z,7.32
2023-04-26T22:16:47.401Z,4.35
2023-04-26T22:19:14.237Z,5.70
2023-04-26T22:21:40.996Z,6.55
2023-04-26T22:24:07.764Z,5.82
2023-04-26T22:26:34.354Z,10.88
2023-04-26T22:29:00.913Z,8.68
2023-04-26T22:31:27.302Z,4.78
2023-04-26T22:33:53.754Z,7.18
2023-04-26T22:36:20.699Z,4.78
2023-04-26T22:38:47.109Z,5.63
2023-04-26T22:41:13.486Z,5.88
2023-04-26T22:43:41.476Z,4.38
2023-04-26T22:46:08.015Z,5.20
2023-04-26T22:48:34.409Z,5.15
2023-04-26T22:51:00.859Z,3.45
2023-04-26T22:53:27.455Z,3.75
2023-04-26T22:55:53.801Z,3.92
2023-04-26T22:58:23.782Z,4.95
2023-04-26T23:00:50.247Z,7.40
2023-04-26T23:03:16.943Z,4.22
2023-04-26T23:05:43.493Z,3.45
2023-04-26T23:08:09.848Z,6.47
2023-04-26T23:10:36.195Z,4.28
2023-04-26T23:13:02.577Z,6.53
2023-04-26T23:15:28.943Z,13.18
2023-04-26T23:17:55.390Z,8.43
2023-04-26T23:20:22.625Z,4.70
2023-04-26T23:22:49.026Z,6.72
2023-04-26T23:25:15.375Z,8.23
2023-04-26T23:27:42.106Z,3.65
2023-04-26T23:30:08.988Z,5.05
2023-04-26T23:32:35.524Z,6.35
2023-04-26T23:35:01.894Z,5.03
2023-04-26T23:37:29.002Z,6.43
2023-04-26T23:39:55.586Z,5.05
2023-04-26T23:42:22.102Z,6.55
2023-04-26T23:44:48.462Z,5.35
2023-04-26T23:47:14.970Z,7.70
2023-04-26T23:49:41.350Z,7.47
2023-04-26T23:52:07.777Z,5.40
2023-04-26T23:54:34.222Z,6.55
2023-04-26T23:57:00.953Z,4.80
2023-04-26T23:59:27.517Z,4.53
